sensor_id;sensor_type;location;lat;lon;timestamp;P1;durP1;ratioP1;P2;durP2;ratioP2
12110;SDS011;6119;52.372;8.990;2023-05-10T00:02:11;38.67;;;20.00;;
12110;SDS011;6119;52.372;8.990;2023-05-10T00:04:58;27.33;;;14.17;;
12110;SDS011;6119;52.372;8.990;2023-05-10T00:07:44;20.67;;;10.80;;
12110;SDS011;6119;52.372;8.990;2023-05-10T00:10:32;11.33;;;8.07;;
12110;SDS011;6119;52.372;8.990;2023-05-10T00:13:19;9.20;;;7.60;;
12110;SDS011;6119;52.372;8.990;2023-05-10T00:16:06;10.50;;;7.93;;
12110;SDS011;6119;52.372;8.990;2023-05-10T00:18:53;10.60;;;8.37;;
12110;SDS011;6119;52.372;8.990;2023-05-10T00:21:39;10.93;;;8.37;;
12110;SDS011;6119;52.372;8.990;2023-05-10T00:24:26;10.37;;;8.20;;
12110;SDS011;6119;52.372;8.990;2023-05-10T00:27:14;9.80;;;8.30;;
12110;SDS011;6119;52.372;8.990;2023-05-10T00:30:00;11.80;;;8.17;;
12110;SDS011;6119;52.372;8.990;2023-05-10T00:32:47;10.83;;;8.77;;
12110;SDS011;6119;52.372;8.990;2023-05-10T00:35:34;11.97;;;8.83;;
12110;SDS011;6119;52.372;8.990;2023-05-10T00:38:22;10.57;;;8.37;;
12110;SDS011;6119;52.372;8.990;2023-05-10T00:41:09;13.57;;;9.47;;
12110;SDS011;6119;52.372;8.990;2023-05-10T00:43:57;11.73;;;8.97;;
12110;SDS011;6119;52.372;8.990;2023-05-10T00:46:44;12.40;;;8.80;;
12110;SDS011;6119;52.372;8.990;2023-05-10T00:49:31;12.50;;;9.13;;
12110;SDS011;6119;52.372;8.990;2023-05-10T00:52:18;12.33;;;9.17;;
12110;SDS011;6119;52.372;8.990;2023-05-10T00:55:05;12.80;;;9.53;;
12110;SDS011;6119;52.372;8.990;2023-05-10T00:57:53;15.47;;;9.53;;
12110;SDS011;6119;52.372;8.990;2023-05-10T01:00:41;12.90;;;9.30;;
12110;SDS011;6119;52.372;8.990;2023-05-10T01:03:28;11.10;;;8.93;;
12110;SDS011;6119;52.372;8.990;2023-05-10T01:06:16;12.33;;;9.43;;
12110;SDS011;6119;52.372;8.990;2023-05-10T01:09:03;12.90;;;9.93;;
12110;SDS011;6119;52.372;8.990;2023-05-10T01:11:51;11.67;;;9.33;;
12110;SDS011;6119;52.372;8.990;2023-05-10T01:14:39;10.93;;;9.30;;
12110;SDS011;6119;52.372;8.990;2023-05-10T01:17:27;11.27;;;8.07;;
12110;SDS011;6119;52.372;8.990;2023-05-10T01:20:14;13.10;;;8.93;;
12110;SDS011;6119;52.372;8.990;2023-05-10T01:23:11;11.63;;;9.33;;
12110;SDS011;6119;52.372;8.990;2023-05-10T01:29:44;12.77;;;9.30;;
12110;SDS011;6119;52.372;8.990;2023-05-10T01:33:01;10.30;;;8.87;;
12110;SDS011;6119;52.372;8.990;2023-05-10T01:35:58;11.77;;;9.83;;
12110;SDS011;6119;52.372;8.990;2023-05-10T01:38:53;11.57;;;9.83;;
12110;SDS011;6119;52.372;8.990;2023-05-10T01:41:48;11.77;;;10.30;;
12110;SDS011;6119;52.372;8.990;2023-05-10T01:44:39;12.57;;;10.13;;
12110;SDS011;6119;52.372;8.990;2023-05-10T01:47:31;11.60;;;9.50;;
12110;SDS011;6119;52.372;8.990;2023-05-10T01:50:27;13.77;;;9.73;;
12110;SDS011;6119;52.372;8.990;2023-05-10T01:53:17;13.77;;;11.00;;
12110;SDS011;6119;52.372;8.990;2023-05-10T01:56:05;16.70;;;12.50;;
12110;SDS011;6119;52.372;8.990;2023-05-10T01:58:54;11.40;;;10.10;;
12110;SDS011;6119;52.372;8.990;2023-05-10T02:01:42;12.53;;;10.07;;
12110;SDS011;6119;52.372;8.990;2023-05-10T02:04:30;12.50;;;10.10;;
12110;SDS011;6119;52.372;8.990;2023-05-10T02:07:20;11.63;;;10.00;;
12110;SDS011;6119;52.372;8.990;2023-05-10T02:10:09;13.20;;;9.50;;
12110;SDS011;6119;52.372;8.990;2023-05-10T02:12:58;13.60;;;9.80;;
12110;SDS011;6119;52.372;8.990;2023-05-10T02:15:46;12.60;;;10.40;;
12110;SDS011;6119;52.372;8.990;2023-05-10T02:18:34;12.40;;;10.00;;
12110;SDS011;6119;52.372;8.990;2023-05-10T02:21:22;10.73;;;9.63;;
12110;SDS011;6119;52.372;8.990;2023-05-10T02:24:10;11.73;;;9.83;;
12110;SDS011;6119;52.372;8.990;2023-05-10T02:26:58;12.33;;;10.53;;
12110;SDS011;6119;52.372;8.990;2023-05-10T02:29:46;12.73;;;10.43;;
12110;SDS011;6119;52.372;8.990;2023-05-10T02:32:33;14.07;;;10.80;;
12110;SDS011;6119;52.372;8.990;2023-05-10T02:35:21;10.80;;;9.70;;
12110;SDS011;6119;52.372;8.990;2023-05-10T02:38:09;10.93;;;9.40;;
12110;SDS011;6119;52.372;8.990;2023-05-10T02:40:58;16.13;;;11.20;;
12110;SDS011;6119;52.372;8.990;2023-05-10T02:43:45;12.40;;;9.73;;
12110;SDS011;6119;52.372;8.990;2023-05-10T02:46:35;11.67;;;9.77;;
12110;SDS011;6119;52.372;8.990;2023-05-10T02:49:22;11.43;;;9.33;;
12110;SDS011;6119;52.372;8.990;2023-05-10T02:52:09;9.77;;;8.70;;
12110;SDS011;6119;52.372;8.990;2023-05-10T02:54:58;11.60;;;9.33;;
12110;SDS011;6119;52.372;8.990;2023-05-10T02:57:50;9.97;;;8.87;;
12110;SDS011;6119;52.372;8.990;2023-05-10T03:00:40;11.17;;;8.13;;
12110;SDS011;6119;52.372;8.990;2023-05-10T03:03:27;11.17;;;9.17;;
12110;SDS011;6119;52.372;8.990;2023-05-10T03:06:13;10.93;;;9.07;;
12110;SDS011;6119;52.372;8.990;2023-05-10T03:09:01;12.10;;;8.53;;
12110;SDS011;6119;52.372;8.990;2023-05-10T03:11:50;9.60;;;8.43;;
12110;SDS011;6119;52.372;8.990;2023-05-10T03:14:45;10.00;;;9.00;;
12110;SDS011;6119;52.372;8.990;2023-05-10T03:17:40;11.33;;;9.17;;
12110;SDS011;6119;52.372;8.990;2023-05-10T03:20:35;11.63;;;9.33;;
12110;SDS011;6119;52.372;8.990;2023-05-10T03:23:26;11.10;;;8.67;;
12110;SDS011;6119;52.372;8.990;2023-05-10T03:26:17;10.80;;;8.47;;
12110;SDS011;6119;52.372;8.990;2023-05-10T03:29:06;12.47;;;9.30;;
12110;SDS011;6119;52.372;8.990;2023-05-10T03:31:56;9.10;;;8.20;;
12110;SDS011;6119;52.372;8.990;2023-05-10T03:34:44;9.80;;;8.57;;
12110;SDS011;6119;52.372;8.990;2023-05-10T03:37:30;12.80;;;9.07;;
12110;SDS011;6119;52.372;8.990;2023-05-10T03:40:16;10.97;;;9.63;;
12110;SDS011;6119;52.372;8.990;2023-05-10T03:43:05;6.37;;;5.30;;
12110;SDS011;6119;52.372;8.990;2023-05-10T03:45:51;7.27;;;6.27;;
12110;SDS011;6119;52.372;8.990;2023-05-10T03:48:40;8.40;;;6.97;;
12110;SDS011;6119;52.372;8.990;2023-05-10T03:51:26;6.33;;;5.47;;
12110;SDS011;6119;52.372;8.990;2023-05-10T03:54:13;5.97;;;4.50;;
12110;SDS011;6119;52.372;8.990;2023-05-10T03:57:00;6.40;;;5.30;;
12110;SDS011;6119;52.372;8.990;2023-05-10T03:59:47;5.07;;;4.10;;
12110;SDS011;6119;52.372;8.990;2023-05-10T04:02:35;4.83;;;4.20;;
12110;SDS011;6119;52.372;8.990;2023-05-10T04:05:24;4.77;;;4.27;;
12110;SDS011;6119;52.372;8.990;2023-05-10T04:08:10;4.70;;;4.30;;
12110;SDS011;6119;52.372;8.990;2023-05-10T04:11:04;6.30;;;4.73;;
12110;SDS011;6119;52.372;8.990;2023-05-10T04:13:52;7.37;;;5.10;;
12110;SDS011;6119;52.372;8.990;2023-05-10T04:16:38;5.70;;;4.77;;
12110;SDS011;6119;52.372;8.990;2023-05-10T04:19:28;4.00;;;3.60;;
12110;SDS011;6119;52.372;8.990;2023-05-10T04:22:16;4.20;;;3.33;;
12110;SDS011;6119;52.372;8.990;2023-05-10T04:25:04;5.83;;;3.73;;
12110;SDS011;6119;52.372;8.990;2023-05-10T04:27:51;5.40;;;3.63;;
12110;SDS011;6119;52.372;8.990;2023-05-10T04:30:38;4.77;;;3.30;;
12110;SDS011;6119;52.372;8.990;2023-05-10T04:33:25;4.73;;;3.63;;
12110;SDS011;6119;52.372;8.990;2023-05-10T04:36:12;4.00;;;3.37;;
12110;SDS011;6119;52.372;8.990;2023-05-10T04:39:00;3.90;;;3.50;;
12110;SDS011;6119;52.372;8.990;2023-05-10T04:41:47;3.83;;;3.40;;
12110;SDS011;6119;52.372;8.990;2023-05-10T04:44:33;4.63;;;3.40;;
12110;SDS011;6119;52.372;8.990;2023-05-10T04:47:21;4.87;;;4.10;;
12110;SDS011;6119;52.372;8.990;2023-05-10T04:50:07;5.97;;;3.47;;
12110;SDS011;6119;52.372;8.990;2023-05-10T04:52:54;4.07;;;3.67;;
12110;SDS011;6119;52.372;8.990;2023-05-10T04:55:42;4.40;;;3.63;;
12110;SDS011;6119;52.372;8.990;2023-05-10T04:58:28;4.97;;;4.30;;
12110;SDS011;6119;52.372;8.990;2023-05-10T05:01:15;5.37;;;4.20;;
12110;SDS011;6119;52.372;8.990;2023-05-10T05:04:02;4.80;;;4.30;;
12110;SDS011;6119;52.372;8.990;2023-05-10T05:06:49;6.97;;;3.60;;
12110;SDS011;6119;52.372;8.990;2023-05-10T05:09:38;5.00;;;3.70;;
12110;SDS011;6119;52.372;8.990;2023-05-10T05:12:25;4.40;;;3.93;;
12110;SDS011;6119;52.372;8.990;2023-05-10T05:15:12;5.27;;;4.20;;
12110;SDS011;6119;52.372;8.990;2023-05-10T05:18:00;4.27;;;3.87;;
12110;SDS011;6119;52.372;8.990;2023-05-10T05:20:47;6.03;;;4.27;;
12110;SDS011;6119;52.372;8.990;2023-05-10T05:23:33;6.40;;;4.60;;
12110;SDS011;6119;52.372;8.990;2023-05-10T05:26:20;4.83;;;4.33;;
12110;SDS011;6119;52.372;8.990;2023-05-10T05:29:07;5.07;;;4.57;;
12110;SDS011;6119;52.372;8.990;2023-05-10T05:31:54;5.40;;;4.90;;
12110;SDS011;6119;52.372;8.990;2023-05-10T05:34:41;3.77;;;3.37;;
12110;SDS011;6119;52.372;8.990;2023-05-10T05:37:30;4.07;;;3.40;;
12110;SDS011;6119;52.372;8.990;2023-05-10T05:40:17;3.57;;;3.27;;
12110;SDS011;6119;52.372;8.990;2023-05-10T05:43:03;3.03;;;2.73;;
12110;SDS011;6119;52.372;8.990;2023-05-10T05:45:51;4.70;;;3.20;;
12110;SDS011;6119;52.372;8.990;2023-05-10T05:48:38;3.20;;;2.90;;
12110;SDS011;6119;52.372;8.990;2023-05-10T05:51:24;2.70;;;2.30;;
12110;SDS011;6119;52.372;8.990;2023-05-10T05:54:11;2.80;;;2.50;;
12110;SDS011;6119;52.372;8.990;2023-05-10T05:56:58;3.00;;;2.00;;
12110;SDS011;6119;52.372;8.990;2023-05-10T05:59:45;1.90;;;1.80;;
12110;SDS011;6119;52.372;8.990;2023-05-10T06:02:33;2.00;;;1.80;;
12110;SDS011;6119;52.372;8.990;2023-05-10T06:05:20;1.67;;;1.57;;
12110;SDS011;6119;52.372;8.990;2023-05-10T06:08:07;1.77;;;1.67;;
12110;SDS011;6119;52.372;8.990;2023-05-10T06:10:54;1.70;;;1.50;;
12110;SDS011;6119;52.372;8.990;2023-05-10T06:13:41;2.00;;;1.80;;
12110;SDS011;6119;52.372;8.990;2023-05-10T06:16:28;1.93;;;1.57;;
12110;SDS011;6119;52.372;8.990;2023-05-10T06:19:15;3.10;;;1.90;;
12110;SDS011;6119;52.372;8.990;2023-05-10T06:22:02;1.77;;;1.67;;
12110;SDS011;6119;52.372;8.990;2023-05-10T06:24:49;1.90;;;1.70;;
12110;SDS011;6119;52.372;8.990;2023-05-10T06:27:35;1.83;;;1.73;;
12110;SDS011;6119;52.372;8.990;2023-05-10T06:30:22;2.30;;;2.10;;
12110;SDS011;6119;52.372;8.990;2023-05-10T06:33:12;2.27;;;2.07;;
12110;SDS011;6119;52.372;8.990;2023-05-10T06:36:00;2.33;;;2.13;;
12110;SDS011;6119;52.372;8.990;2023-05-10T06:38:46;4.80;;;2.53;;
12110;SDS011;6119;52.372;8.990;2023-05-10T06:41:33;4.93;;;2.40;;
12110;SDS011;6119;52.372;8.990;2023-05-10T06:44:20;2.50;;;2.30;;
12110;SDS011;6119;52.372;8.990;2023-05-10T06:47:06;2.60;;;2.40;;
12110;SDS011;6119;52.372;8.990;2023-05-10T06:49:53;3.27;;;2.77;;
12110;SDS011;6119;52.372;8.990;2023-05-10T06:52:42;2.47;;;2.27;;
12110;SDS011;6119;52.372;8.990;2023-05-10T06:55:28;3.60;;;2.90;;
12110;SDS011;6119;52.372;8.990;2023-05-10T06:58:15;3.80;;;2.30;;
12110;SDS011;6119;52.372;8.990;2023-05-10T07:01:01;2.83;;;2.63;;
12110;SDS011;6119;52.372;8.990;2023-05-10T07:03:48;3.20;;;2.90;;
12110;SDS011;6119;52.372;8.990;2023-05-10T07:06:35;3.90;;;2.70;;
12110;SDS011;6119;52.372;8.990;2023-05-10T07:09:23;2.97;;;2.67;;
12110;SDS011;6119;52.372;8.990;2023-05-10T07:12:10;2.90;;;2.70;;
12110;SDS011;6119;52.372;8.990;2023-05-10T07:14:59;3.17;;;2.87;;
12110;SDS011;6119;52.372;8.990;2023-05-10T07:17:46;4.43;;;3.87;;
12110;SDS011;6119;52.372;8.990;2023-05-10T07:20:32;5.07;;;3.40;;
12110;SDS011;6119;52.372;8.990;2023-05-10T07:23:19;7.07;;;4.17;;
12110;SDS011;6119;52.372;8.990;2023-05-10T07:26:07;3.60;;;3.10;;
12110;SDS011;6119;52.372;8.990;2023-05-10T07:28:54;3.43;;;3.07;;
12110;SDS011;6119;52.372;8.990;2023-05-10T07:31:40;3.23;;;2.70;;
12110;SDS011;6119;52.372;8.990;2023-05-10T07:34:27;3.20;;;2.90;;
12110;SDS011;6119;52.372;8.990;2023-05-10T07:37:14;4.17;;;3.07;;
12110;SDS011;6119;52.372;8.990;2023-05-10T07:40:01;3.67;;;3.13;;
12110;SDS011;6119;52.372;8.990;2023-05-10T07:42:50;4.23;;;3.73;;
12110;SDS011;6119;52.372;8.990;2023-05-10T07:45:36;3.70;;;3.40;;
12110;SDS011;6119;52.372;8.990;2023-05-10T07:48:23;3.63;;;3.33;;
12110;SDS011;6119;52.372;8.990;2023-05-10T07:51:10;6.47;;;3.63;;
12110;SDS011;6119;52.372;8.990;2023-05-10T07:53:56;3.50;;;3.20;;
12110;SDS011;6119;52.372;8.990;2023-05-10T07:56:43;3.93;;;3.53;;
12110;SDS011;6119;52.372;8.990;2023-05-10T07:59:33;3.90;;;3.50;;
12110;SDS011;6119;52.372;8.990;2023-05-10T08:02:20;4.47;;;3.97;;
12110;SDS011;6119;52.372;8.990;2023-05-10T08:05:07;5.73;;;3.77;;
12110;SDS011;6119;52.372;8.990;2023-05-10T08:07:54;4.10;;;3.70;;
12110;SDS011;6119;52.372;8.990;2023-05-10T08:10:41;4.33;;;3.37;;
12110;SDS011;6119;52.372;8.990;2023-05-10T08:13:27;5.00;;;3.50;;
12110;SDS011;6119;52.372;8.990;2023-05-10T08:16:15;3.67;;;3.27;;
12110;SDS011;6119;52.372;8.990;2023-05-10T08:19:02;5.20;;;3.83;;
12110;SDS011;6119;52.372;8.990;2023-05-10T08:21:49;7.00;;;3.90;;
12110;SDS011;6119;52.372;8.990;2023-05-10T08:24:36;6.40;;;4.03;;
12110;SDS011;6119;52.372;8.990;2023-05-10T08:27:23;5.43;;;4.03;;
12110;SDS011;6119;52.372;8.990;2023-05-10T08:30:09;4.07;;;3.60;;
12110;SDS011;6119;52.372;8.990;2023-05-10T08:32:58;6.33;;;4.40;;
12110;SDS011;6119;52.372;8.990;2023-05-10T08:35:45;4.17;;;3.77;;
12110;SDS011;6119;52.372;8.990;2023-05-10T08:38:31;5.23;;;3.73;;
12110;SDS011;6119;52.372;8.990;2023-05-10T08:41:18;4.70;;;3.90;;
12110;SDS011;6119;52.372;8.990;2023-05-10T08:44:07;4.67;;;4.10;;
12110;SDS011;6119;52.372;8.990;2023-05-10T08:46:54;4.47;;;3.60;;
12110;SDS011;6119;52.372;8.990;2023-05-10T08:49:43;4.23;;;3.73;;
12110;SDS011;6119;52.372;8.990;2023-05-10T08:52:30;4.97;;;3.40;;
12110;SDS011;6119;52.372;8.990;2023-05-10T08:55:18;5.47;;;3.70;;
12110;SDS011;6119;52.372;8.990;2023-05-10T08:58:05;4.40;;;3.60;;
12110;SDS011;6119;52.372;8.990;2023-05-10T09:00:52;6.45;;;4.40;;
12110;SDS011;6119;52.372;8.990;2023-05-10T09:03:39;6.30;;;3.43;;
12110;SDS011;6119;52.372;8.990;2023-05-10T09:06:27;3.80;;;3.50;;
12110;SDS011;6119;52.372;8.990;2023-05-10T09:09:15;5.43;;;3.70;;
12110;SDS011;6119;52.372;8.990;2023-05-10T09:12:02;4.77;;;3.63;;
12110;SDS011;6119;52.372;8.990;2023-05-10T09:14:49;4.73;;;4.10;;
12110;SDS011;6119;52.372;8.990;2023-05-10T09:17:38;6.90;;;4.10;;
12110;SDS011;6119;52.372;8.990;2023-05-10T09:20:26;7.50;;;4.50;;
12110;SDS011;6119;52.372;8.990;2023-05-10T09:23:14;8.33;;;4.90;;
12110;SDS011;6119;52.372;8.990;2023-05-10T09:26:04;7.47;;;4.80;;
12110;SDS011;6119;52.372;8.990;2023-05-10T09:28:51;8.20;;;5.37;;
12110;SDS011;6119;52.372;8.990;2023-05-10T09:31:46;6.40;;;5.03;;
12110;SDS011;6119;52.372;8.990;2023-05-10T09:34:35;8.07;;;4.90;;
12110;SDS011;6119;52.372;8.990;2023-05-10T09:37:29;9.40;;;4.97;;
12110;SDS011;6119;52.372;8.990;2023-05-10T09:40:17;8.27;;;5.07;;
12110;SDS011;6119;52.372;8.990;2023-05-10T09:43:06;9.10;;;5.07;;
12110;SDS011;6119;52.372;8.990;2023-05-10T09:45:55;9.57;;;5.43;;
12110;SDS011;6119;52.372;8.990;2023-05-10T09:48:43;8.60;;;4.77;;
12110;SDS011;6119;52.372;8.990;2023-05-10T09:51:31;10.13;;;5.23;;
12110;SDS011;6119;52.372;8.990;2023-05-10T09:54:20;10.30;;;5.10;;
12110;SDS011;6119;52.372;8.990;2023-05-10T09:57:10;10.50;;;5.40;;
12110;SDS011;6119;52.372;8.990;2023-05-10T10:00:06;8.87;;;5.77;;
12110;SDS011;6119;52.372;8.990;2023-05-10T10:02:55;8.00;;;5.50;;
12110;SDS011;6119;52.372;8.990;2023-05-10T10:05:43;9.87;;;6.17;;
12110;SDS011;6119;52.372;8.990;2023-05-10T10:08:30;7.60;;;6.40;;
12110;SDS011;6119;52.372;8.990;2023-05-10T10:11:17;9.87;;;5.90;;
12110;SDS011;6119;52.372;8.990;2023-05-10T10:14:05;8.07;;;4.80;;
12110;SDS011;6119;52.372;8.990;2023-05-10T10:16:52;7.87;;;5.13;;
12110;SDS011;6119;52.372;8.990;2023-05-10T10:19:52;7.50;;;5.07;;
12110;SDS011;6119;52.372;8.990;2023-05-10T10:22:39;7.80;;;5.23;;
12110;SDS011;6119;52.372;8.990;2023-05-10T10:25:25;7.73;;;5.27;;
12110;SDS011;6119;52.372;8.990;2023-05-10T10:28:16;9.33;;;5.10;;
12110;SDS011;6119;52.372;8.990;2023-05-10T10:31:15;7.73;;;5.60;;
12110;SDS011;6119;52.372;8.990;2023-05-10T10:34:10;10.10;;;5.97;;
12110;SDS011;6119;52.372;8.990;2023-05-10T10:37:08;8.67;;;5.77;;
12110;SDS011;6119;52.372;8.990;2023-05-10T10:39:54;8.40;;;5.40;;
12110;SDS011;6119;52.372;8.990;2023-05-10T10:42:44;8.13;;;5.93;;
12110;SDS011;6119;52.372;8.990;2023-05-10T10:45:34;7.67;;;5.50;;
12110;SDS011;6119;52.372;8.990;2023-05-10T10:48:27;9.33;;;6.33;;
12110;SDS011;6119;52.372;8.990;2023-05-10T10:51:14;11.63;;;6.50;;
12110;SDS011;6119;52.372;8.990;2023-05-10T10:54:08;8.37;;;6.10;;
12110;SDS011;6119;52.372;8.990;2023-05-10T10:57:10;9.20;;;6.83;;
12110;SDS011;6119;52.372;8.990;2023-05-10T11:03:04;8.37;;;5.97;;
12110;SDS011;6119;52.372;8.990;2023-05-10T11:05:57;9.00;;;6.13;;
12110;SDS011;6119;52.372;8.990;2023-05-10T11:08:46;8.47;;;6.27;;
12110;SDS011;6119;52.372;8.990;2023-05-10T11:11:34;8.43;;;5.93;;
12110;SDS011;6119;52.372;8.990;2023-05-10T11:14:21;8.23;;;6.13;;
12110;SDS011;6119;52.372;8.990;2023-05-10T11:17:23;7.90;;;6.07;;
12110;SDS011;6119;52.372;8.990;2023-05-10T11:20:13;9.03;;;6.60;;
12110;SDS011;6119;52.372;8.990;2023-05-10T11:23:12;8.10;;;5.70;;
12110;SDS011;6119;52.372;8.990;2023-05-10T11:26:00;6.73;;;5.40;;
12110;SDS011;6119;52.372;8.990;2023-05-10T11:28:48;7.97;;;5.33;;
12110;SDS011;6119;52.372;8.990;2023-05-10T11:31:35;8.77;;;5.63;;
12110;SDS011;6119;52.372;8.990;2023-05-10T11:34:28;8.43;;;5.57;;
12110;SDS011;6119;52.372;8.990;2023-05-10T11:37:18;8.73;;;5.47;;
12110;SDS011;6119;52.372;8.990;2023-05-10T11:40:07;9.77;;;5.90;;
12110;SDS011;6119;52.372;8.990;2023-05-10T11:42:55;6.70;;;5.03;;
12110;SDS011;6119;52.372;8.990;2023-05-10T11:45:42;8.17;;;4.67;;
12110;SDS011;6119;52.372;8.990;2023-05-10T11:48:29;6.83;;;4.90;;
12110;SDS011;6119;52.372;8.990;2023-05-10T11:51:19;7.63;;;4.17;;
12110;SDS011;6119;52.372;8.990;2023-05-10T11:54:07;5.40;;;4.17;;
12110;SDS011;6119;52.372;8.990;2023-05-10T11:56:55;6.70;;;4.20;;
12110;SDS011;6119;52.372;8.990;2023-05-10T11:59:42;7.90;;;4.93;;
12110;SDS011;6119;52.372;8.990;2023-05-10T12:02:29;6.30;;;4.33;;
12110;SDS011;6119;52.372;8.990;2023-05-10T12:05:15;7.97;;;5.07;;
12110;SDS011;6119;52.372;8.990;2023-05-10T12:08:12;7.57;;;5.67;;
12110;SDS011;6119;52.372;8.990;2023-05-10T12:11:04;7.90;;;5.23;;
12110;SDS011;6119;52.372;8.990;2023-05-10T12:13:53;6.70;;;4.17;;
12110;SDS011;6119;52.372;8.990;2023-05-10T12:16:40;8.30;;;4.70;;
12110;SDS011;6119;52.372;8.990;2023-05-10T12:19:29;8.83;;;5.17;;
12110;SDS011;6119;52.372;8.990;2023-05-10T12:22:23;6.90;;;4.60;;
12110;SDS011;6119;52.372;8.990;2023-05-10T12:25:10;7.60;;;5.43;;
12110;SDS011;6119;52.372;8.990;2023-05-10T12:27:57;6.57;;;5.23;;
12110;SDS011;6119;52.372;8.990;2023-05-10T12:30:47;8.07;;;5.70;;
12110;SDS011;6119;52.372;8.990;2023-05-10T12:33:37;10.20;;;6.93;;
12110;SDS011;6119;52.372;8.990;2023-05-10T12:36:27;7.53;;;5.43;;
12110;SDS011;6119;52.372;8.990;2023-05-10T12:39:13;9.27;;;6.43;;
12110;SDS011;6119;52.372;8.990;2023-05-10T12:42:00;9.43;;;6.67;;
12110;SDS011;6119;52.372;8.990;2023-05-10T12:44:46;9.50;;;6.80;;
12110;SDS011;6119;52.372;8.990;2023-05-10T12:47:34;9.43;;;6.30;;
12110;SDS011;6119;52.372;8.990;2023-05-10T12:50:21;9.63;;;6.90;;
12110;SDS011;6119;52.372;8.990;2023-05-10T12:53:09;9.23;;;6.70;;
12110;SDS011;6119;52.372;8.990;2023-05-10T12:55:55;11.87;;;6.90;;
12110;SDS011;6119;52.372;8.990;2023-05-10T12:58:41;12.27;;;6.53;;
12110;SDS011;6119;52.372;8.990;2023-05-10T13:01:33;7.63;;;4.87;;
12110;SDS011;6119;52.372;8.990;2023-05-10T13:04:21;5.70;;;4.43;;
12110;SDS011;6119;52.372;8.990;2023-05-10T13:07:08;8.20;;;4.60;;
12110;SDS011;6119;52.372;8.990;2023-05-10T13:09:55;6.40;;;4.57;;
12110;SDS011;6119;52.372;8.990;2023-05-10T13:12:41;10.27;;;6.23;;
12110;SDS011;6119;52.372;8.990;2023-05-10T13:15:27;10.47;;;6.70;;
12110;SDS011;6119;52.372;8.990;2023-05-10T13:18:14;14.03;;;8.87;;
12110;SDS011;6119;52.372;8.990;2023-05-10T13:21:02;14.60;;;9.80;;
12110;SDS011;6119;52.372;8.990;2023-05-10T13:23:50;14.07;;;9.73;;
12110;SDS011;6119;52.372;8.990;2023-05-10T13:26:36;16.60;;;10.40;;
12110;SDS011;6119;52.372;8.990;2023-05-10T13:29:23;20.70;;;10.37;;
12110;SDS011;6119;52.372;8.990;2023-05-10T13:32:10;17.40;;;10.90;;
12110;SDS011;6119;52.372;8.990;2023-05-10T13:34:56;18.70;;;11.27;;
12110;SDS011;6119;52.372;8.990;2023-05-10T13:37:44;15.80;;;10.93;;
12110;SDS011;6119;52.372;8.990;2023-05-10T13:40:31;17.63;;;11.23;;
12110;SDS011;6119;52.372;8.990;2023-05-10T13:43:17;19.27;;;12.00;;
12110;SDS011;6119;52.372;8.990;2023-05-10T13:46:04;18.97;;;10.13;;
12110;SDS011;6119;52.372;8.990;2023-05-10T13:48:51;16.13;;;10.80;;
12110;SDS011;6119;52.372;8.990;2023-05-10T13:51:37;15.50;;;10.70;;
12110;SDS011;6119;52.372;8.990;2023-05-10T13:54:25;18.40;;;11.17;;
12110;SDS011;6119;52.372;8.990;2023-05-10T13:57:14;14.07;;;10.20;;
12110;SDS011;6119;52.372;8.990;2023-05-10T14:00:01;17.03;;;11.13;;
12110;SDS011;6119;52.372;8.990;2023-05-10T14:02:48;14.77;;;10.30;;
12110;SDS011;6119;52.372;8.990;2023-05-10T14:05:35;16.23;;;9.83;;
12110;SDS011;6119;52.372;8.990;2023-05-10T14:08:21;13.60;;;8.27;;
12110;SDS011;6119;52.372;8.990;2023-05-10T14:11:09;9.87;;;6.37;;
12110;SDS011;6119;52.372;8.990;2023-05-10T14:13:56;8.40;;;5.83;;
12110;SDS011;6119;52.372;8.990;2023-05-10T14:16:43;7.80;;;5.33;;
12110;SDS011;6119;52.372;8.990;2023-05-10T14:19:31;10.67;;;5.83;;
12110;SDS011;6119;52.372;8.990;2023-05-10T14:22:18;6.93;;;5.07;;
12110;SDS011;6119;52.372;8.990;2023-05-10T14:25:05;8.63;;;5.60;;
12110;SDS011;6119;52.372;8.990;2023-05-10T14:27:54;7.90;;;5.43;;
12110;SDS011;6119;52.372;8.990;2023-05-10T14:30:40;10.43;;;5.10;;
12110;SDS011;6119;52.372;8.990;2023-05-10T14:33:27;9.93;;;4.60;;
12110;SDS011;6119;52.372;8.990;2023-05-10T14:36:14;7.97;;;4.47;;
12110;SDS011;6119;52.372;8.990;2023-05-10T14:39:00;7.43;;;4.10;;
12110;SDS011;6119;52.372;8.990;2023-05-10T14:41:47;5.30;;;4.00;;
12110;SDS011;6119;52.372;8.990;2023-05-10T14:44:37;5.43;;;4.20;;
12110;SDS011;6119;52.372;8.990;2023-05-10T14:47:24;5.53;;;3.67;;
12110;SDS011;6119;52.372;8.990;2023-05-10T14:50:10;5.40;;;4.00;;
12110;SDS011;6119;52.372;8.990;2023-05-10T14:53:17;6.50;;;4.70;;
12110;SDS011;6119;52.372;8.990;2023-05-10T14:56:04;6.47;;;4.33;;
12110;SDS011;6119;52.372;8.990;2023-05-10T14:58:51;6.73;;;4.30;;
12110;SDS011;6119;52.372;8.990;2023-05-10T15:01:39;4.97;;;4.07;;
12110;SDS011;6119;52.372;8.990;2023-05-10T15:04:27;5.90;;;3.73;;
12110;SDS011;6119;52.372;8.990;2023-05-10T15:07:14;8.57;;;3.80;;
12110;SDS011;6119;52.372;8.990;2023-05-10T15:10:03;5.27;;;3.50;;
12110;SDS011;6119;52.372;8.990;2023-05-10T15:12:51;4.60;;;3.30;;
12110;SDS011;6119;52.372;8.990;2023-05-10T15:15:37;5.73;;;2.90;;
12110;SDS011;6119;52.372;8.990;2023-05-10T15:18:25;3.03;;;2.63;;
12110;SDS011;6119;52.372;8.990;2023-05-10T15:21:12;3.20;;;2.40;;
12110;SDS011;6119;52.372;8.990;2023-05-10T15:23:59;3.77;;;2.50;;
12110;SDS011;6119;52.372;8.990;2023-05-10T15:26:45;4.00;;;2.30;;
12110;SDS011;6119;52.372;8.990;2023-05-10T15:29:32;2.60;;;2.40;;
12110;SDS011;6119;52.372;8.990;2023-05-10T15:32:19;4.40;;;2.77;;
12110;SDS011;6119;52.372;8.990;2023-05-10T15:35:08;3.60;;;2.67;;
12110;SDS011;6119;52.372;8.990;2023-05-10T15:37:55;4.50;;;2.43;;
12110;SDS011;6119;52.372;8.990;2023-05-10T15:40:42;4.00;;;2.90;;
12110;SDS011;6119;52.372;8.990;2023-05-10T15:43:28;5.00;;;2.83;;
12110;SDS011;6119;52.372;8.990;2023-05-10T15:46:15;4.87;;;3.03;;
12110;SDS011;6119;52.372;8.990;2023-05-10T15:49:02;5.50;;;3.03;;
12110;SDS011;6119;52.372;8.990;2023-05-10T15:51:49;4.77;;;3.00;;
12110;SDS011;6119;52.372;8.990;2023-05-10T15:54:36;3.20;;;2.80;;
12110;SDS011;6119;52.372;8.990;2023-05-10T15:57:22;3.17;;;2.33;;
12110;SDS011;6119;52.372;8.990;2023-05-10T16:00:09;4.50;;;2.40;;
12110;SDS011;6119;52.372;8.990;2023-05-10T16:02:57;2.63;;;2.07;;
12110;SDS011;6119;52.372;8.990;2023-05-10T16:05:44;2.30;;;1.93;;
12110;SDS011;6119;52.372;8.990;2023-05-10T16:08:32;2.53;;;2.23;;
12110;SDS011;6119;52.372;8.990;2023-05-10T16:11:19;2.27;;;2.00;;
12110;SDS011;6119;52.372;8.990;2023-05-10T16:14:06;2.17;;;1.90;;
12110;SDS011;6119;52.372;8.990;2023-05-10T16:16:53;2.13;;;1.60;;
12110;SDS011;6119;52.372;8.990;2023-05-10T16:19:40;1.07;;;1.07;;
12110;SDS011;6119;52.372;8.990;2023-05-10T16:22:26;1.97;;;1.23;;
12110;SDS011;6119;52.372;8.990;2023-05-10T16:25:15;1.40;;;1.30;;
12110;SDS011;6119;52.372;8.990;2023-05-10T16:28:02;1.97;;;1.33;;
12110;SDS011;6119;52.372;8.990;2023-05-10T16:30:48;1.30;;;1.20;;
12110;SDS011;6119;52.372;8.990;2023-05-10T16:33:36;1.63;;;1.10;;
12110;SDS011;6119;52.372;8.990;2023-05-10T16:36:22;1.83;;;1.30;;
12110;SDS011;6119;52.372;8.990;2023-05-10T16:39:09;1.00;;;1.00;;
12110;SDS011;6119;52.372;8.990;2023-05-10T16:41:57;1.20;;;1.10;;
12110;SDS011;6119;52.372;8.990;2023-05-10T16:44:43;1.30;;;0.90;;
12110;SDS011;6119;52.372;8.990;2023-05-10T16:47:30;1.20;;;1.10;;
12110;SDS011;6119;52.372;8.990;2023-05-10T16:50:16;1.13;;;1.10;;
12110;SDS011;6119;52.372;8.990;2023-05-10T16:53:03;1.50;;;1.13;;
12110;SDS011;6119;52.372;8.990;2023-05-10T16:55:49;1.30;;;1.20;;
12110;SDS011;6119;52.372;8.990;2023-05-10T16:58:37;2.00;;;0.90;;
12110;SDS011;6119;52.372;8.990;2023-05-10T17:01:24;1.30;;;1.20;;
12110;SDS011;6119;52.372;8.990;2023-05-10T17:04:11;1.83;;;1.10;;
12110;SDS011;6119;52.372;8.990;2023-05-10T17:06:58;1.20;;;1.10;;
12110;SDS011;6119;52.372;8.990;2023-05-10T17:09:45;3.13;;;1.10;;